Terminal Aerodrome Forecast
Issued by NWS

Home | Current Version | Previous Version | Text Only | Print | Product List | Glossary On
Versions: 1 2 3 4 5 6 7 8 9 10 11 12 13
000
FTUS46 KMFR 231137
TAFRBG
TAF
KRBG 231137Z 2312/2412 VRB03KT P6SM SKC
     FM231600 36009KT P6SM SKC
     FM231900 01013G20KT P6SM SKC
     FM240400 35007KT P6SM SKC=

USA.gov is the U.S. government's official web portal to all federal, state and local government web resources and services.